createdAt,value
2022-11-13T00:01:10.931Z,272.15
2022-11-13T00:03:58.794Z,185.52
2022-11-13T00:06:44.085Z,154.02
2022-11-13T00:09:29.492Z,144.55
2022-11-13T00:12:15.641Z,143.05
2022-11-13T00:15:01.390Z,148.55
2022-11-13T00:17:46.742Z,142.07
2022-11-13T00:20:33.318Z,87.15
2022-11-13T00:23:18.765Z,166.07
2022-11-13T00:26:05.798Z,173.68
2022-11-13T00:28:53.366Z,123.50
2022-11-13T00:31:38.733Z,184.43
2022-11-13T00:34:46.516Z,150.25
2022-11-13T00:37:30.790Z,212.18
2022-11-13T00:40:16.993Z,171.00
2022-11-13T00:43:02.459Z,212.32
2022-11-13T00:45:47.692Z,183.23
2022-11-13T00:48:32.967Z,217.32
2022-11-13T00:51:19.687Z,109.55
2022-11-13T00:54:06.693Z,189.60
2022-11-13T00:56:52.250Z,101.60
2022-11-13T00:59:37.440Z,67.65
2022-11-13T01:02:22.800Z,90.55
2022-11-13T01:05:08.583Z,156.70
2022-11-13T01:07:54.108Z,93.07
2022-11-13T01:10:44.122Z,123.07
2022-11-13T01:13:30.688Z,168.73
2022-11-13T01:16:17.885Z,188.60
2022-11-13T01:19:03.459Z,152.30
2022-11-13T01:21:48.599Z,192.95
2022-11-13T01:24:33.936Z,198.82
2022-11-13T01:27:20.501Z,153.63
2022-11-13T01:30:07.134Z,113.13
2022-11-13T01:32:52.653Z,119.95
2022-11-13T01:35:37.906Z,95.32
2022-11-13T01:38:23.091Z,107.38
2022-11-13T01:41:12.335Z,116.35
2022-11-13T01:44:00.055Z,73.57
2022-11-13T01:46:48.644Z,96.85
2022-11-13T01:49:37.028Z,78.63
2022-11-13T01:52:25.530Z,135.05
2022-11-13T01:55:13.439Z,145.13
2022-11-13T01:58:00.270Z,137.48
2022-11-13T02:00:47.364Z,163.82
2022-11-13T02:03:32.886Z,111.30
2022-11-13T02:06:19.489Z,134.23
2022-11-13T02:09:05.773Z,163.15
2022-11-13T02:11:52.185Z,170.13
2022-11-13T02:14:39.950Z,140.85
2022-11-13T02:17:30.927Z,139.25
2022-11-13T02:20:19.189Z,134.23
2022-11-13T02:23:14.205Z,104.25
2022-11-13T02:26:01.032Z,98.32
2022-11-13T02:28:47.404Z,85.30
2022-11-13T02:31:32.562Z,101.93
2022-11-13T02:34:17.982Z,86.78
2022-11-13T02:37:03.184Z,85.32
2022-11-13T02:39:48.411Z,107.28
2022-11-13T02:42:35.066Z,80.40
2022-11-13T02:45:20.256Z,126.93
2022-11-13T02:48:07.129Z,100.85
2022-11-13T02:50:52.438Z,50.35
2022-11-13T02:53:37.900Z,51.45
2022-11-13T02:56:23.335Z,46.70
2022-11-13T02:59:09.988Z,83.20
2022-11-13T03:01:55.405Z,49.70
2022-11-13T03:05:10.247Z,58.03
2022-11-13T03:07:46.513Z,62.20
2022-11-13T03:10:31.733Z,55.50
2022-11-13T03:13:17.052Z,57.45
2022-11-13T03:16:09.342Z,82.13
2022-11-13T03:18:55.799Z,66.40
2022-11-13T03:21:41.146Z,54.05
2022-11-13T03:24:26.445Z,84.68
2022-11-13T03:27:12.268Z,72.03
2022-11-13T03:29:57.724Z,66.75
2022-11-13T03:32:44.495Z,61.92
2022-11-13T03:35:32.492Z,78.78
2022-11-13T03:38:20.530Z,73.78
2022-11-13T03:41:06.008Z,48.08
2022-11-13T03:43:51.572Z,88.78
2022-11-13T03:46:36.903Z,74.43
2022-11-13T03:49:23.572Z,69.20
2022-11-13T03:52:09.268Z,76.30
2022-11-13T03:54:54.504Z,62.75
2022-11-13T03:57:39.833Z,58.00
2022-11-13T04:00:25.246Z,75.95
2022-11-13T04:03:11.230Z,63.80
2022-11-13T04:05:58.565Z,50.97
2022-11-13T04:08:44.356Z,53.00
2022-11-13T04:11:29.988Z,49.47
2022-11-13T04:14:15.552Z,40.10
2022-11-13T04:17:01.225Z,49.60
2022-11-13T04:19:46.722Z,65.35
2022-11-13T04:22:33.462Z,60.97
2022-11-13T04:25:18.972Z,55.22
2022-11-13T04:28:04.888Z,55.22
2022-11-13T04:30:52.649Z,51.00
2022-11-13T04:33:38.268Z,45.95
2022-11-13T04:36:23.750Z,46.53
2022-11-13T04:39:10.336Z,53.65
2022-11-13T04:42:14.685Z,51.30
2022-11-13T04:45:00.288Z,48.42
2022-11-13T04:47:45.896Z,49.13
2022-11-13T04:50:32.204Z,52.95
2022-11-13T04:56:04.414Z,34.85
2022-11-13T04:58:49.978Z,43.50
2022-11-13T05:01:36.415Z,51.78
2022-11-13T05:04:22.586Z,57.63
2022-11-13T05:07:08.170Z,82.05
2022-11-13T05:09:53.453Z,59.80
2022-11-13T05:12:40.093Z,51.10
2022-11-13T05:15:26.481Z,56.08
2022-11-13T05:18:12.131Z,78.50
2022-11-13T05:23:43.164Z,62.83
2022-11-13T05:26:28.834Z,91.10
2022-11-13T05:32:01.441Z,91.65
2022-11-13T05:34:46.712Z,75.40
2022-11-13T05:37:31.883Z,98.05
2022-11-13T05:40:17.558Z,129.63
2022-11-13T05:43:02.821Z,183.73
2022-11-13T05:45:49.476Z,145.60
2022-11-13T05:48:35.556Z,108.53
2022-11-13T05:51:23.342Z,129.18
2022-11-13T05:54:08.951Z,44.45
2022-11-13T05:56:54.441Z,114.03
2022-11-13T05:59:39.896Z,101.35
2022-11-13T06:02:26.737Z,84.97
2022-11-13T06:05:12.338Z,96.88
2022-11-13T06:07:57.519Z,85.38
2022-11-13T06:10:42.932Z,147.95
2022-11-13T06:13:28.605Z,82.07
2022-11-13T06:16:16.352Z,304.33
2022-11-13T06:19:05.794Z,243.10
2022-11-13T06:21:51.366Z,162.13
2022-11-13T06:24:36.512Z,156.10
2022-11-13T06:27:21.943Z,203.80
2022-11-13T06:30:08.493Z,144.85
2022-11-13T06:32:54.477Z,201.73
2022-11-13T06:35:41.680Z,131.00
2022-11-13T06:38:27.520Z,186.77
2022-11-13T06:41:15.167Z,124.38
2022-11-13T06:44:03.310Z,177.35
2022-11-13T06:46:48.906Z,157.60
2022-11-13T06:49:34.081Z,125.55
2022-11-13T06:52:21.154Z,167.68
2022-11-13T06:55:06.910Z,98.15
2022-11-13T06:57:53.959Z,88.53
2022-11-13T07:00:40.255Z,79.43
2022-11-13T07:03:29.475Z,121.97
2022-11-13T07:06:16.844Z,55.90
2022-11-13T07:09:04.029Z,70.18
2022-11-13T07:11:49.224Z,99.13
2022-11-13T07:14:34.569Z,134.73
2022-11-13T07:17:19.917Z,218.25
2022-11-13T07:20:05.961Z,176.88
2022-11-13T07:22:54.867Z,163.82
2022-11-13T07:25:41.848Z,189.00
2022-11-13T07:28:27.308Z,71.00
2022-11-13T07:33:58.590Z,138.75
2022-11-13T07:36:43.807Z,63.45
2022-11-13T07:39:29.706Z,101.18
2022-11-13T07:42:16.327Z,87.43
2022-11-13T07:45:02.024Z,118.63
2022-11-13T07:47:47.726Z,70.30
2022-11-13T07:50:34.678Z,76.60
2022-11-13T07:53:20.544Z,84.45
2022-11-13T07:56:06.652Z,102.28
2022-11-13T07:58:53.504Z,113.82
2022-11-13T08:01:39.077Z,115.95
2022-11-13T08:07:12.552Z,112.43
2022-11-13T08:09:57.845Z,111.43
2022-11-13T08:12:43.276Z,68.72
2022-11-13T08:15:31.639Z,41.22
2022-11-13T08:18:17.345Z,78.25
2022-11-13T08:23:50.369Z,37.13
2022-11-13T08:26:38.190Z,32.72
2022-11-13T08:29:23.842Z,31.48
2022-11-13T08:32:13.902Z,36.58
2022-11-13T08:34:59.993Z,130.70
2022-11-13T08:37:45.425Z,51.53
2022-11-13T08:40:31.172Z,56.05
2022-11-13T08:43:17.389Z,31.13
2022-11-13T08:46:02.931Z,39.28
2022-11-13T08:48:49.796Z,46.72
2022-11-13T08:51:34.975Z,53.72
2022-11-13T08:54:21.114Z,30.90
2022-11-13T08:57:06.795Z,40.72
2022-11-13T08:59:52.058Z,32.78
2022-11-13T09:02:37.361Z,28.35
2022-11-13T09:05:25.441Z,33.90
2022-11-13T09:08:10.981Z,27.15
2022-11-13T09:10:56.488Z,28.55
2022-11-13T09:13:45.727Z,30.50
2022-11-13T09:16:32.928Z,35.55
2022-11-13T09:19:18.221Z,28.27
2022-11-13T09:22:05.215Z,29.85
2022-11-13T09:24:50.844Z,32.60
2022-11-13T09:27:36.334Z,26.77
2022-11-13T09:30:21.971Z,32.40
2022-11-13T09:33:07.709Z,33.60
2022-11-13T09:38:40.200Z,27.88
2022-11-13T09:41:28.592Z,26.25
2022-11-13T09:44:17.564Z,19.52
2022-11-13T09:47:09.210Z,19.45
2022-11-13T09:50:00.371Z,19.15
2022-11-13T09:52:46.607Z,18.90
2022-11-13T09:55:40.175Z,22.42
2022-11-13T09:58:31.858Z,19.73
2022-11-13T10:01:26.203Z,22.05
2022-11-13T10:04:15.072Z,16.63
2022-11-13T10:07:20.603Z,18.58
2022-11-13T10:10:24.150Z,21.93
2022-11-13T10:13:15.784Z,18.77
2022-11-13T10:16:06.760Z,15.45
2022-11-13T10:18:54.276Z,14.13
2022-11-13T10:21:45.326Z,12.32
2022-11-13T10:24:38.699Z,14.38
2022-11-13T10:27:24.509Z,12.43
2022-11-13T10:33:06.740Z,13.82
2022-11-13T10:35:59.190Z,15.50
2022-11-13T10:38:50.222Z,12.75
2022-11-13T10:41:46.136Z,14.27
2022-11-13T10:47:42.468Z,12.73
2022-11-13T10:50:29.184Z,16.02
2022-11-13T10:53:16.739Z,11.13
2022-11-13T10:56:11.623Z,15.63
2022-11-13T10:59:03.833Z,11.75
2022-11-13T11:01:50.200Z,9.85
2022-11-13T11:04:37.121Z,12.25
2022-11-13T11:07:23.662Z,13.80
2022-11-13T11:10:22.680Z,10.90
2022-11-13T11:13:12.490Z,18.75
2022-11-13T11:16:01.655Z,10.73
2022-11-13T11:18:52.555Z,9.35
2022-11-13T11:21:41.871Z,12.15
2022-11-13T11:24:32.421Z,9.57
2022-11-13T11:27:23.223Z,10.50
2022-11-13T11:30:23.129Z,8.23
2022-11-13T11:33:15.680Z,10.68
2022-11-13T11:36:08.452Z,9.00
2022-11-13T11:39:03.088Z,10.00
2022-11-13T11:41:57.300Z,9.60
2022-11-13T11:44:54.972Z,8.15
2022-11-13T11:47:40.623Z,9.98
2022-11-13T11:50:34.878Z,10.77
2022-11-13T11:53:34.032Z,7.50
2022-11-13T11:56:26.711Z,8.63
2022-11-13T11:59:26.042Z,9.52
2022-11-13T12:02:40.226Z,8.35
2022-11-13T12:05:30.084Z,8.77
2022-11-13T12:08:27.327Z,7.18
2022-11-13T12:11:21.521Z,7.00
2022-11-13T12:14:15.743Z,6.38
2022-11-13T12:17:19.094Z,7.22
2022-11-13T12:20:17.821Z,7.15
2022-11-13T12:23:15.238Z,4.53
2022-11-13T12:26:07.531Z,5.85
2022-11-13T12:29:00.725Z,8.00
2022-11-13T12:31:58.420Z,9.20
2022-11-13T12:34:48.865Z,6.75
2022-11-13T12:37:42.273Z,8.52
2022-11-13T12:40:37.551Z,7.90
2022-11-13T12:43:42.230Z,3.70
2022-11-13T12:46:36.649Z,4.28
2022-11-13T12:49:32.873Z,5.50
2022-11-13T12:52:20.796Z,7.43
2022-11-13T12:55:23.804Z,8.65
2022-11-13T12:58:11.206Z,6.65
2022-11-13T13:01:02.548Z,6.50
2022-11-13T13:04:26.409Z,11.15
2022-11-13T13:07:25.213Z,7.72
2022-11-13T13:10:16.510Z,4.35
2022-11-13T13:13:11.006Z,6.57
2022-11-13T13:15:58.387Z,5.68
2022-11-13T13:18:43.839Z,6.00
2022-11-13T13:21:40.887Z,6.85
2022-11-13T13:24:32.349Z,7.55
2022-11-13T13:27:28.814Z,4.50
2022-11-13T13:30:20.143Z,7.13
2022-11-13T13:33:18.728Z,6.43
2022-11-13T13:36:14.238Z,5.47
2022-11-13T13:39:08.468Z,6.95
2022-11-13T13:42:13.074Z,5.97
2022-11-13T13:45:12.097Z,11.02
2022-11-13T13:47:58.801Z,7.70
2022-11-13T13:50:46.910Z,6.70
2022-11-13T13:53:36.354Z,8.88
2022-11-13T13:56:23.364Z,5.88
2022-11-13T13:59:15.980Z,8.55
2022-11-13T14:02:03.705Z,8.38
2022-11-13T14:04:51.233Z,7.93
2022-11-13T14:07:38.198Z,6.38
2022-11-13T14:10:26.448Z,6.45
2022-11-13T14:13:12.839Z,5.78
2022-11-13T14:16:04.724Z,7.70
2022-11-13T14:18:50.405Z,10.48
2022-11-13T14:21:36.119Z,11.32
2022-11-13T14:24:25.486Z,8.55
2022-11-13T14:27:15.696Z,13.15
2022-11-13T14:30:02.736Z,20.08
2022-11-13T14:32:50.000Z,15.85
2022-11-13T14:35:38.246Z,11.10
2022-11-13T14:38:26.518Z,9.98
2022-11-13T14:41:21.521Z,22.95
2022-11-13T14:44:09.778Z,14.50
2022-11-13T14:47:03.896Z,24.75
2022-11-13T14:49:50.948Z,24.73
2022-11-13T14:52:36.463Z,17.80
2022-11-13T14:55:24.388Z,15.15
2022-11-13T14:58:12.673Z,18.38
2022-11-13T15:00:59.009Z,20.20
2022-11-13T15:03:45.204Z,26.30
2022-11-13T15:06:38.165Z,33.53
2022-11-13T15:09:25.570Z,33.05
2022-11-13T15:12:11.364Z,43.30
2022-11-13T15:14:56.700Z,37.28
2022-11-13T15:17:45.336Z,24.02
2022-11-13T15:20:31.928Z,29.63
2022-11-13T15:23:20.386Z,28.50
2022-11-13T15:26:06.041Z,24.40
2022-11-13T15:28:51.939Z,28.33
2022-11-13T15:31:40.182Z,25.05
2022-11-13T15:34:25.405Z,20.30
2022-11-13T15:37:12.574Z,29.27
2022-11-13T15:39:59.687Z,27.08
2022-11-13T15:42:45.792Z,14.30
2022-11-13T15:45:31.450Z,13.93
2022-11-13T15:48:16.789Z,13.88
2022-11-13T15:51:02.686Z,10.80
2022-11-13T15:53:50.270Z,13.05
2022-11-13T15:56:37.566Z,11.27
2022-11-13T15:59:22.915Z,11.02
2022-11-13T16:02:09.085Z,14.57
2022-11-13T16:04:57.126Z,14.48
2022-11-13T16:07:42.921Z,13.98
2022-11-13T16:10:28.526Z,13.88
2022-11-13T16:13:15.497Z,14.13
2022-11-13T16:16:01.422Z,29.73
2022-11-13T16:18:47.581Z,76.90
2022-11-13T16:21:33.184Z,65.07
2022-11-13T16:24:22.724Z,45.70
2022-11-13T16:27:13.791Z,29.58
2022-11-13T16:30:06.427Z,25.77
2022-11-13T16:32:52.277Z,20.13
2022-11-13T16:35:38.722Z,17.77
2022-11-13T16:38:24.541Z,27.15
2022-11-13T16:41:11.115Z,19.92
2022-11-13T16:43:56.438Z,16.05
2022-11-13T16:46:45.337Z,28.23
2022-11-13T16:49:30.585Z,24.50
2022-11-13T16:52:15.978Z,23.52
2022-11-13T16:55:06.369Z,25.85
2022-11-13T16:57:52.588Z,34.53
2022-11-13T17:00:38.045Z,36.75
2022-11-13T17:03:25.052Z,38.17
2022-11-13T17:06:21.924Z,36.58
2022-11-13T17:09:07.189Z,39.22
2022-11-13T17:11:52.395Z,36.72
2022-11-13T17:14:37.937Z,25.60
2022-11-13T17:17:23.696Z,22.15
2022-11-13T17:20:11.851Z,17.55
2022-11-13T17:22:56.955Z,17.02
2022-11-13T17:25:42.181Z,22.90
2022-11-13T17:28:27.986Z,23.15
2022-11-13T17:31:13.300Z,41.88
2022-11-13T17:33:58.620Z,36.00
2022-11-13T17:36:45.273Z,31.05
2022-11-13T17:39:30.937Z,29.30
2022-11-13T17:42:16.165Z,29.08
2022-11-13T17:45:02.096Z,32.60
2022-11-13T17:47:49.975Z,19.10
2022-11-13T17:50:35.454Z,17.80
2022-11-13T17:53:22.156Z,17.92
2022-11-13T17:56:11.689Z,15.13
2022-11-13T17:58:56.913Z,14.75
2022-11-13T18:01:42.897Z,14.32
2022-11-13T18:04:28.869Z,14.85
2022-11-13T18:07:14.578Z,18.55
2022-11-13T18:10:01.673Z,20.48
2022-11-13T18:12:47.694Z,25.20
2022-11-13T18:15:34.704Z,20.95
2022-11-13T18:18:20.833Z,21.40
2022-11-13T18:21:22.409Z,23.25
2022-11-13T18:24:13.288Z,29.48
2022-11-13T18:27:00.265Z,47.03
2022-11-13T18:29:45.729Z,59.80
2022-11-13T18:32:31.145Z,64.90
2022-11-13T18:35:16.778Z,71.82
2022-11-13T18:38:05.377Z,72.28
2022-11-13T18:40:51.246Z,71.45
2022-11-13T18:43:38.456Z,66.35
2022-11-13T18:46:24.100Z,72.57
2022-11-13T18:49:09.916Z,50.97
2022-11-13T18:51:55.190Z,34.50
2022-11-13T18:54:40.689Z,40.05
2022-11-13T18:57:26.220Z,35.65
2022-11-13T19:00:14.364Z,37.85
2022-11-13T19:02:59.949Z,31.10
2022-11-13T19:08:31.902Z,36.45
2022-11-13T19:11:18.567Z,38.70
2022-11-13T19:14:04.167Z,38.25
2022-11-13T19:16:51.314Z,44.40
2022-11-13T19:19:37.669Z,38.05
2022-11-13T19:22:23.671Z,36.03
2022-11-13T19:25:09.227Z,35.72
2022-11-13T19:30:44.465Z,32.53
2022-11-13T19:33:31.441Z,32.33
2022-11-13T19:36:18.424Z,25.55
2022-11-13T19:39:04.994Z,26.75
2022-11-13T19:41:50.437Z,31.42
2022-11-13T19:44:35.845Z,40.47
2022-11-13T19:47:21.494Z,51.35
2022-11-13T19:50:10.313Z,34.08
2022-11-13T19:52:56.404Z,32.47
2022-11-13T19:55:41.995Z,35.42
2022-11-13T19:58:29.383Z,34.90
2022-11-13T20:01:16.571Z,31.80
2022-11-13T20:04:03.855Z,36.63
2022-11-13T20:06:50.960Z,40.53
2022-11-13T20:09:36.870Z,44.22
2022-11-13T20:12:23.941Z,49.90
2022-11-13T20:15:10.365Z,45.90
2022-11-13T20:17:56.247Z,109.20
2022-11-13T20:20:43.425Z,99.65
2022-11-13T20:23:30.554Z,100.55
2022-11-13T20:26:18.901Z,68.75
2022-11-13T20:29:04.455Z,106.65
2022-11-13T20:31:51.981Z,99.38
2022-11-13T20:34:37.270Z,102.82
2022-11-13T20:37:22.657Z,119.53
2022-11-13T20:40:10.565Z,135.15
2022-11-13T20:42:55.938Z,37.08
2022-11-13T20:45:41.227Z,67.28
2022-11-13T20:48:26.616Z,52.83
2022-11-13T20:51:14.299Z,95.75
2022-11-13T20:53:59.953Z,111.00
2022-11-13T20:56:46.835Z,107.05
2022-11-13T20:59:32.454Z,66.38
2022-11-13T21:02:17.808Z,89.35
2022-11-13T21:05:03.201Z,97.03
2022-11-13T21:07:48.617Z,80.07
2022-11-13T21:10:34.401Z,85.13
2022-11-13T21:13:21.469Z,76.78
2022-11-13T21:16:08.416Z,79.30
2022-11-13T21:18:55.697Z,86.50
2022-11-13T21:21:41.504Z,71.80
2022-11-13T21:24:27.476Z,95.60
2022-11-13T21:30:00.133Z,74.20
2022-11-13T21:32:45.833Z,90.50
2022-11-13T21:38:17.552Z,75.45
2022-11-13T21:41:24.927Z,80.82
2022-11-13T21:44:10.926Z,79.65
2022-11-13T21:49:43.830Z,71.57
2022-11-13T21:55:16.187Z,83.03
2022-11-13T21:58:01.635Z,89.63
2022-11-13T22:00:46.952Z,88.68
2022-11-13T22:03:33.910Z,82.60
2022-11-13T22:06:20.832Z,88.70
2022-11-13T22:09:12.164Z,86.88
2022-11-13T22:11:57.999Z,81.10
2022-11-13T22:14:43.561Z,97.40
2022-11-13T22:17:28.806Z,95.47
2022-11-13T22:20:16.060Z,51.45
2022-11-13T22:23:04.777Z,82.30
2022-11-13T22:25:52.453Z,73.15
2022-11-13T22:28:43.026Z,78.22
2022-11-13T22:31:30.212Z,74.35
2022-11-13T22:34:16.136Z,60.10
2022-11-13T22:37:02.853Z,74.32
2022-11-13T22:39:48.236Z,66.03
2022-11-13T22:42:34.455Z,78.00
2022-11-13T22:45:24.285Z,64.07
2022-11-13T22:48:10.671Z,94.63
2022-11-13T22:50:56.649Z,81.88
2022-11-13T22:53:49.029Z,103.30
2022-11-13T22:56:35.880Z,85.32
2022-11-13T22:59:21.339Z,107.22
2022-11-13T23:02:07.188Z,96.47
2022-11-13T23:04:52.637Z,139.90
2022-11-13T23:10:25.860Z,89.15
2022-11-13T23:13:11.398Z,139.48
2022-11-13T23:15:56.847Z,130.13
2022-11-13T23:18:42.461Z,157.02
2022-11-13T23:21:29.416Z,139.15
2022-11-13T23:24:15.114Z,123.65
2022-11-13T23:27:02.245Z,66.05
2022-11-13T23:29:50.234Z,105.22
2022-11-13T23:32:36.073Z,85.65
2022-11-13T23:35:21.338Z,66.05
2022-11-13T23:38:06.580Z,103.20
2022-11-13T23:40:54.530Z,83.05
2022-11-13T23:46:46.880Z,76.25
2022-11-13T23:49:32.136Z,76.32
2022-11-13T23:52:17.518Z,99.45
2022-11-13T23:57:55.480Z,66.57
